Time;durP1;ratioP1;P1;durP2;ratioP2;P2;SDS_P1;SDS_P2;PMS_P1;PMS_P2;Temp;Humidity;BMP_temperature;BMP_pressure;BME280_temperature;BME280_humidity;BME280_pressure;Samples;Min_cycle;Max_cycle;Signal;HPM_P1;HPM_P2
2022/03/18 00:02:13;;;;;;;16.48;6.32;;;;;;;;;;5044450;28;20020;-68
2022/03/18 00:04:38;;;;;;;10.27;6.28;;;;;;;;;;5059904;28;20433;-66
2022/03/18 00:07:04;;;;;;;16.73;6.78;;;;;;;;;;5044917;28;20530;-66
2022/03/18 00:09:30;;;;;;;13.88;7.18;;;;;;;;;;5059244;28;20562;-67
2022/03/18 00:11:55;;;;;;;14.52;6.85;;;;;;;;;;5061557;28;20020;-67
2022/03/18 00:14:21;;;;;;;13.23;6.38;;;;;;;;;;5051372;28;20477;-66
2022/03/18 00:16:46;;;;;;;11.05;6.35;;;;;;;;;;5062871;28;20534;-67
2022/03/18 00:19:12;;;;;;;11.40;6.43;;;;;;;;;;5041262;28;20021;-67
2022/03/18 00:21:37;;;;;;;9.98;5.90;;;;;;;;;;5062671;28;20021;-67
2022/03/18 00:24:03;;;;;;;12.45;6.53;;;;;;;;;;5060467;28;20479;-67
2022/03/18 00:26:29;;;;;;;12.75;6.43;;;;;;;;;;5042735;28;20090;-67
2022/03/18 00:28:54;;;;;;;11.25;6.65;;;;;;;;;;5056393;28;20028;-67
2022/03/18 00:31:19;;;;;;;10.65;6.53;;;;;;;;;;5058730;28;20100;-67
2022/03/18 00:33:45;;;;;;;12.65;6.65;;;;;;;;;;5060453;28;20027;-68
2022/03/18 00:36:10;;;;;;;13.20;6.38;;;;;;;;;;5058460;28;20032;-67
2022/03/18 00:38:35;;;;;;;11.05;6.13;;;;;;;;;;5061106;28;20032;-67
2022/03/18 00:41:01;;;;;;;14.52;6.00;;;;;;;;;;5061733;28;20056;-68
2022/03/18 00:43:26;;;;;;;12.40;6.07;;;;;;;;;;5053782;28;20047;-66
2022/03/18 00:45:52;;;;;;;10.15;5.70;;;;;;;;;;5060293;28;20025;-67
2022/03/18 00:53:46;;;;;;;10.48;6.60;;;;;;;;;;5062096;28;20047;-67
2022/03/18 00:56:11;;;;;;;12.25;6.47;;;;;;;;;;5060335;28;20324;-67
2022/03/18 00:58:36;;;;;;;16.67;7.18;;;;;;;;;;5051841;28;20043;-67
2022/03/18 01:01:01;;;;;;;11.73;6.38;;;;;;;;;;5040458;28;20490;-67
2022/03/18 01:03:27;;;;;;;13.73;5.80;;;;;;;;;;5038316;28;20090;-67
2022/03/18 01:05:52;;;;;;;13.30;6.97;;;;;;;;;;5040162;28;20135;-67
2022/03/18 01:08:17;;;;;;;11.05;6.80;;;;;;;;;;5037941;28;20048;-66
2022/03/18 01:10:44;;;;;;;10.15;6.90;;;;;;;;;;5042663;28;20025;-67
2022/03/18 01:13:10;;;;;;;12.27;6.43;;;;;;;;;;5034825;28;20444;-66
2022/03/18 01:15:35;;;;;;;10.77;5.82;;;;;;;;;;5023720;28;20115;-67
2022/03/18 01:18:00;;;;;;;12.18;6.53;;;;;;;;;;5038875;28;20541;-66
2022/03/18 01:20:26;;;;;;;13.77;6.65;;;;;;;;;;5038296;28;20455;-67
2022/03/18 01:22:51;;;;;;;16.88;7.13;;;;;;;;;;5040007;28;20487;-67
2022/03/18 01:25:17;;;;;;;8.32;6.10;;;;;;;;;;5038853;28;20028;-67
2022/03/18 01:27:42;;;;;;;13.65;7.20;;;;;;;;;;5037186;28;20024;-66
2022/03/18 01:30:08;;;;;;;13.23;6.53;;;;;;;;;;5037731;28;20025;-67
2022/03/18 01:32:34;;;;;;;14.75;7.10;;;;;;;;;;5020066;28;20837;-65
2022/03/18 01:34:59;;;;;;;14.65;6.43;;;;;;;;;;5038973;28;20029;-67
2022/03/18 01:37:25;;;;;;;11.10;6.72;;;;;;;;;;5038937;28;20017;-67
2022/03/18 01:39:50;;;;;;;14.43;6.55;;;;;;;;;;5042143;28;20054;-66
2022/03/18 01:42:16;;;;;;;16.90;6.63;;;;;;;;;;5024112;28;20029;-66
2022/03/18 01:44:41;;;;;;;10.52;5.97;;;;;;;;;;5035288;28;20072;-67
2022/03/18 01:47:07;;;;;;;10.45;5.63;;;;;;;;;;5040622;28;20380;-67
2022/03/18 01:49:33;;;;;;;13.23;6.55;;;;;;;;;;5037755;28;20039;-66
2022/03/18 01:51:58;;;;;;;14.75;6.25;;;;;;;;;;5042098;28;20025;-67
2022/03/18 01:57:08;;;;;;;10.98;5.90;;;;;;;;;;5041667;28;20075;-67
2022/03/18 01:59:33;;;;;;;10.55;5.95;;;;;;;;;;5034680;28;20538;-68
2022/03/18 02:01:58;;;;;;;12.80;7.13;;;;;;;;;;5047781;28;20063;-67
2022/03/18 02:04:24;;;;;;;15.05;6.65;;;;;;;;;;5037260;28;20089;-66
2022/03/18 02:06:50;;;;;;;14.60;6.90;;;;;;;;;;5039514;28;20108;-67
2022/03/18 02:09:16;;;;;;;13.80;6.32;;;;;;;;;;5025035;28;20036;-67
2022/03/18 02:11:43;;;;;;;13.93;7.20;;;;;;;;;;5047943;28;20021;-67
2022/03/18 02:14:09;;;;;;;13.43;6.72;;;;;;;;;;5036692;28;20032;-65
2022/03/18 02:16:39;;;;;;;11.43;6.35;;;;;;;;;;5060563;28;20116;-67
2022/03/18 02:19:04;;;;;;;12.68;6.03;;;;;;;;;;5058114;28;20094;-67
2022/03/18 02:21:30;;;;;;;15.32;6.28;;;;;;;;;;5058126;28;20301;-66
2022/03/18 02:23:56;;;;;;;14.35;6.63;;;;;;;;;;5041343;28;20505;-67
2022/03/18 02:26:21;;;;;;;14.95;6.78;;;;;;;;;;5058804;28;20025;-66
2022/03/18 02:28:46;;;;;;;9.57;6.07;;;;;;;;;;5058234;28;20315;-67
2022/03/18 02:31:12;;;;;;;10.48;5.82;;;;;;;;;;5063981;28;20155;-66
2022/03/18 02:33:37;;;;;;;13.07;5.95;;;;;;;;;;5062519;28;20406;-67
2022/03/18 02:36:03;;;;;;;11.98;6.03;;;;;;;;;;5065027;28;20020;-66
2022/03/18 02:38:28;;;;;;;13.00;5.85;;;;;;;;;;5059973;28;20088;-67
2022/03/18 02:40:53;;;;;;;9.73;5.88;;;;;;;;;;5046738;28;20062;-67
2022/03/18 02:43:19;;;;;;;12.05;6.38;;;;;;;;;;5056568;28;20522;-67
2022/03/18 02:45:44;;;;;;;11.90;6.18;;;;;;;;;;5064663;28;20489;-68
2022/03/18 02:48:10;;;;;;;8.23;5.50;;;;;;;;;;5061778;28;20023;-67
2022/03/18 02:50:35;;;;;;;9.10;5.70;;;;;;;;;;5061929;28;20033;-67
2022/03/18 02:53:01;;;;;;;9.57;5.93;;;;;;;;;;5045439;28;20031;-67
2022/03/18 02:55:26;;;;;;;11.85;6.25;;;;;;;;;;5062224;28;20464;-67
2022/03/18 02:57:52;;;;;;;10.07;6.10;;;;;;;;;;5060869;28;20364;-66
2022/03/18 03:00:18;;;;;;;10.02;5.65;;;;;;;;;;5059646;28;20035;-67
2022/03/18 03:02:43;;;;;;;13.43;6.53;;;;;;;;;;5044130;28;20024;-66
2022/03/18 03:07:59;;;;;;;9.23;5.63;;;;;;;;;;5063125;28;20383;-68
2022/03/18 03:10:25;;;;;;;9.75;5.78;;;;;;;;;;5061609;28;20076;-66
2022/03/18 03:12:50;;;;;;;12.32;6.20;;;;;;;;;;5060240;28;20423;-67
2022/03/18 03:15:16;;;;;;;10.65;6.00;;;;;;;;;;5059342;28;20071;-67
2022/03/18 03:17:41;;;;;;;11.98;6.10;;;;;;;;;;5061099;28;20296;-66
2022/03/18 03:20:09;;;;;;;13.20;6.65;;;;;;;;;;5062961;28;20032;-67
2022/03/18 03:22:35;;;;;;;9.88;5.65;;;;;;;;;;5060784;28;20536;-67
2022/03/18 03:25:00;;;;;;;12.65;6.13;;;;;;;;;;5060340;28;20016;-67
2022/03/18 03:27:30;;;;;;;10.35;5.55;;;;;;;;;;5059723;28;20066;-67
2022/03/18 03:29:59;;;;;;;11.98;5.88;;;;;;;;;;5039104;28;20020;-67
2022/03/18 03:32:25;;;;;;;14.07;5.13;;;;;;;;;;5061447;28;20024;-67
2022/03/18 03:34:50;;;;;;;11.57;5.47;;;;;;;;;;5060412;28;20036;-67
2022/03/18 03:37:16;;;;;;;9.90;6.00;;;;;;;;;;5061523;28;20024;-67
2022/03/18 03:39:41;;;;;;;10.85;5.75;;;;;;;;;;5061167;28;20047;-67
2022/03/18 03:42:06;;;;;;;7.43;5.68;;;;;;;;;;5063603;28;20024;-66
2022/03/18 03:44:32;;;;;;;8.90;5.72;;;;;;;;;;5053123;28;20033;-67
2022/03/18 03:46:57;;;;;;;9.27;5.55;;;;;;;;;;5063919;28;20041;-67
2022/03/18 03:49:23;;;;;;;12.27;6.03;;;;;;;;;;5060753;28;20021;-67
2022/03/18 03:51:48;;;;;;;10.55;5.72;;;;;;;;;;5061636;28;20102;-67
2022/03/18 03:54:13;;;;;;;9.35;5.60;;;;;;;;;;5061767;28;20024;-66
2022/03/18 03:56:38;;;;;;;9.57;5.88;;;;;;;;;;5061119;28;20051;-67
2022/03/18 03:59:04;;;;;;;8.90;5.63;;;;;;;;;;5059105;28;20052;-66
2022/03/18 04:01:29;;;;;;;9.73;5.80;;;;;;;;;;5058661;28;20021;-66
2022/03/18 04:03:54;;;;;;;9.55;5.50;;;;;;;;;;5061312;28;20060;-66
2022/03/18 04:06:20;;;;;;;9.57;5.63;;;;;;;;;;5062757;28;20020;-67
2022/03/18 04:08:46;;;;;;;10.68;5.75;;;;;;;;;;5058281;28;20028;-67
2022/03/18 04:11:11;;;;;;;11.27;5.75;;;;;;;;;;5061894;28;20020;-66
2022/03/18 04:13:37;;;;;;;13.45;6.20;;;;;;;;;;5057452;28;20086;-66
2022/03/18 04:16:02;;;;;;;8.93;5.65;;;;;;;;;;5060951;28;20020;-67
2022/03/18 04:18:28;;;;;;;8.60;5.25;;;;;;;;;;5060440;28;20590;-66
2022/03/18 04:20:53;;;;;;;9.32;5.50;;;;;;;;;;5046711;28;20024;-67
2022/03/18 04:23:18;;;;;;;10.95;5.45;;;;;;;;;;5062617;28;20032;-66
2022/03/18 04:25:44;;;;;;;9.63;5.45;;;;;;;;;;5061265;28;20442;-67
2022/03/18 04:28:09;;;;;;;13.45;6.35;;;;;;;;;;5058146;28;20012;-67
2022/03/18 04:30:35;;;;;;;10.25;5.50;;;;;;;;;;5049597;28;20023;-67
2022/03/18 04:33:00;;;;;;;9.73;5.55;;;;;;;;;;5040426;28;20023;-67
2022/03/18 04:35:26;;;;;;;10.07;5.72;;;;;;;;;;5040393;28;20025;-67
2022/03/18 04:37:52;;;;;;;10.90;5.78;;;;;;;;;;5023662;28;20116;-66
2022/03/18 04:40:18;;;;;;;9.38;5.50;;;;;;;;;;5048786;28;20121;-66
2022/03/18 04:42:44;;;;;;;13.00;6.50;;;;;;;;;;5040750;28;20086;-67
2022/03/18 04:45:10;;;;;;;11.02;5.47;;;;;;;;;;5036742;28;20021;-66
2022/03/18 04:47:35;;;;;;;9.48;6.32;;;;;;;;;;5039598;28;20021;-67
2022/03/18 04:50:01;;;;;;;10.80;6.00;;;;;;;;;;5040618;28;20017;-67
2022/03/18 04:52:27;;;;;;;11.52;6.15;;;;;;;;;;5040901;28;20017;-67
2022/03/18 04:54:52;;;;;;;11.75;6.07;;;;;;;;;;5039381;28;20029;-67
2022/03/18 04:57:20;;;;;;;10.88;6.30;;;;;;;;;;5041609;28;20675;-67
2022/03/18 04:59:46;;;;;;;11.50;6.15;;;;;;;;;;5032717;28;20550;-67
2022/03/18 05:02:12;;;;;;;11.18;6.32;;;;;;;;;;5040312;28;20544;-66
2022/03/18 05:04:38;;;;;;;12.38;6.30;;;;;;;;;;5038435;28;20048;-67
2022/03/18 05:07:03;;;;;;;11.75;5.95;;;;;;;;;;5041799;28;20448;-67
2022/03/18 05:09:29;;;;;;;12.75;6.20;;;;;;;;;;5037520;28;20017;-66
2022/03/18 05:11:54;;;;;;;12.75;6.28;;;;;;;;;;5023524;28;20063;-67
2022/03/18 05:14:20;;;;;;;13.65;6.55;;;;;;;;;;5035566;28;20052;-66
2022/03/18 05:16:46;;;;;;;9.70;5.85;;;;;;;;;;5060082;28;20131;-66
2022/03/18 05:19:11;;;;;;;12.05;6.20;;;;;;;;;;5059049;28;20021;-67
2022/03/18 05:21:37;;;;;;;11.00;6.15;;;;;;;;;;5059076;28;20463;-67
2022/03/18 05:24:03;;;;;;;16.60;7.82;;;;;;;;;;5058853;28;20698;-67
2022/03/18 05:26:29;;;;;;;10.38;6.10;;;;;;;;;;5058055;28;20032;-66
2022/03/18 05:28:55;;;;;;;9.50;6.45;;;;;;;;;;5037181;28;20070;-66
2022/03/18 05:31:20;;;;;;;10.65;6.50;;;;;;;;;;5039736;28;20033;-66
2022/03/18 05:33:46;;;;;;;10.60;7.47;;;;;;;;;;5037550;28;20451;-66
2022/03/18 05:36:11;;;;;;;13.57;7.22;;;;;;;;;;5039489;28;20108;-67
2022/03/18 05:38:37;;;;;;;11.57;6.35;;;;;;;;;;5036653;28;20029;-67
2022/03/18 05:41:02;;;;;;;13.18;6.82;;;;;;;;;;5041536;28;20025;-67
2022/03/18 05:43:28;;;;;;;8.55;5.88;;;;;;;;;;5037300;28;20040;-67
2022/03/18 05:45:53;;;;;;;10.05;6.63;;;;;;;;;;5035228;28;20650;-66
2022/03/18 05:48:18;;;;;;;12.00;6.95;;;;;;;;;;5038646;28;20029;-67
2022/03/18 05:50:43;;;;;;;10.30;6.10;;;;;;;;;;5040176;28;20043;-66
2022/03/18 05:53:09;;;;;;;10.35;6.70;;;;;;;;;;5061169;28;20036;-67
2022/03/18 05:58:21;;;;;;;11.10;6.93;;;;;;;;;;5057334;28;20141;-67
2022/03/18 06:00:47;;;;;;;11.93;6.75;;;;;;;;;;5058221;28;20102;-67
2022/03/18 06:03:13;;;;;;;14.68;7.07;;;;;;;;;;5061509;28;20458;-67
2022/03/18 06:05:39;;;;;;;10.55;7.03;;;;;;;;;;5061912;28;20320;-67
2022/03/18 06:13:33;;;;;;;12.13;7.75;;;;;;;;;;5061190;28;20054;-66
2022/03/18 06:15:58;;;;;;;11.68;7.05;;;;;;;;;;5060381;28;20055;-67
2022/03/18 06:18:23;;;;;;;12.18;7.80;;;;;;;;;;5065935;28;20060;-66
2022/03/18 06:20:49;;;;;;;11.93;8.00;;;;;;;;;;5066564;28;20067;-66
2022/03/18 06:23:15;;;;;;;13.45;8.35;;;;;;;;;;5063744;28;20170;-67
2022/03/18 06:25:41;;;;;;;8.85;7.20;;;;;;;;;;5062583;28;20115;-67
2022/03/18 06:28:06;;;;;;;12.32;7.30;;;;;;;;;;5061044;28;20046;-67
2022/03/18 06:30:32;;;;;;;10.85;7.00;;;;;;;;;;5061141;28;20166;-67
2022/03/18 06:32:57;;;;;;;13.52;7.93;;;;;;;;;;5026654;28;20036;-66
2022/03/18 06:35:22;;;;;;;12.25;7.68;;;;;;;;;;5044871;28;20094;-67
2022/03/18 06:37:48;;;;;;;13.48;7.82;;;;;;;;;;5043338;28;20071;-67
2022/03/18 06:40:13;;;;;;;13.02;8.45;;;;;;;;;;5047570;28;20027;-67
2022/03/18 06:42:39;;;;;;;12.23;8.52;;;;;;;;;;5026963;28;20025;-67
2022/03/18 06:45:05;;;;;;;13.90;8.52;;;;;;;;;;5043824;28;20031;-67
2022/03/18 06:47:31;;;;;;;12.25;8.23;;;;;;;;;;5062920;28;20009;-67
2022/03/18 06:49:57;;;;;;;14.10;8.88;;;;;;;;;;5063238;28;20283;-67
2022/03/18 06:52:23;;;;;;;12.77;8.10;;;;;;;;;;5067102;28;20040;-67
2022/03/18 06:54:48;;;;;;;16.95;8.43;;;;;;;;;;5061316;28;20063;-67
2022/03/18 06:57:14;;;;;;;13.02;9.55;;;;;;;;;;5066562;28;20048;-67
2022/03/18 06:59:39;;;;;;;14.52;9.43;;;;;;;;;;5055900;28;20473;-67
2022/03/18 07:02:05;;;;;;;14.23;9.70;;;;;;;;;;5047088;28;20048;-68
2022/03/18 07:04:30;;;;;;;16.70;9.82;;;;;;;;;;5063951;28;20039;-68
2022/03/18 07:06:55;;;;;;;14.05;9.07;;;;;;;;;;5062246;28;20365;-67
2022/03/18 07:09:21;;;;;;;13.65;9.15;;;;;;;;;;5064201;28;20021;-67
2022/03/18 07:11:46;;;;;;;16.75;9.95;;;;;;;;;;5061303;28;20086;-67
2022/03/18 07:14:21;;;;;;;15.00;9.18;;;;;;;;;;5055862;28;20062;-67
2022/03/18 07:19:32;;;;;;;14.70;9.00;;;;;;;;;;5065134;28;20401;-66
2022/03/18 07:21:57;;;;;;;14.20;8.88;;;;;;;;;;5062106;28;20500;-67
2022/03/18 07:24:23;;;;;;;12.13;8.23;;;;;;;;;;5063869;28;20466;-66
2022/03/18 07:26:48;;;;;;;14.23;8.93;;;;;;;;;;5059676;28;20078;-65
2022/03/18 07:29:14;;;;;;;14.65;8.35;;;;;;;;;;5057793;28;20098;-66
2022/03/18 07:31:40;;;;;;;19.65;9.18;;;;;;;;;;5062680;28;20463;-67
2022/03/18 07:34:05;;;;;;;15.40;8.50;;;;;;;;;;5024040;28;20017;-67
2022/03/18 07:36:32;;;;;;;12.43;8.45;;;;;;;;;;5043210;28;20035;-68
2022/03/18 07:38:57;;;;;;;15.13;8.50;;;;;;;;;;5041926;28;20408;-66
2022/03/18 07:41:22;;;;;;;17.85;8.75;;;;;;;;;;5045350;28;20021;-67
2022/03/18 07:43:48;;;;;;;12.73;8.45;;;;;;;;;;5044410;28;20082;-67
2022/03/18 07:46:13;;;;;;;12.98;8.25;;;;;;;;;;5045865;28;20387;-67
2022/03/18 07:48:40;;;;;;;10.93;8.07;;;;;;;;;;5042251;28;20021;-67
2022/03/18 07:51:05;;;;;;;13.52;8.18;;;;;;;;;;5041275;28;20499;-68
2022/03/18 07:53:31;;;;;;;11.57;7.47;;;;;;;;;;5043595;28;20041;-67
2022/03/18 07:55:56;;;;;;;11.63;7.40;;;;;;;;;;5040170;28;20040;-67
2022/03/18 07:58:21;;;;;;;11.77;7.68;;;;;;;;;;5036433;28;20044;-67
2022/03/18 08:00:47;;;;;;;11.40;7.28;;;;;;;;;;5041400;28;20554;-67
2022/03/18 08:03:12;;;;;;;13.10;7.72;;;;;;;;;;5042888;28;20036;-66
2022/03/18 08:05:37;;;;;;;17.40;7.97;;;;;;;;;;5043116;28;20020;-67
2022/03/18 08:08:03;;;;;;;13.43;8.45;;;;;;;;;;5041936;28;20667;-67
2022/03/18 08:10:29;;;;;;;15.18;7.57;;;;;;;;;;5045380;28;20487;-67
2022/03/18 08:12:55;;;;;;;12.95;8.52;;;;;;;;;;5040267;28;20017;-67
2022/03/18 08:15:21;;;;;;;11.23;7.65;;;;;;;;;;5032006;28;20066;-67
2022/03/18 08:17:51;;;;;;;16.52;7.72;;;;;;;;;;5062831;28;20515;-67
2022/03/18 08:20:17;;;;;;;14.23;7.63;;;;;;;;;;5065309;28;20016;-67
2022/03/18 08:22:43;;;;;;;10.93;6.78;;;;;;;;;;5064489;28;20031;-67
2022/03/18 08:25:09;;;;;;;16.40;7.35;;;;;;;;;;5060921;28;20021;-66
2022/03/18 08:27:35;;;;;;;15.48;6.97;;;;;;;;;;5060431;28;20025;-66
2022/03/18 08:30:00;;;;;;;14.18;6.80;;;;;;;;;;5057970;28;20016;-66
2022/03/18 08:32:27;;;;;;;14.98;7.50;;;;;;;;;;5062683;28;20016;-66
2022/03/18 08:34:52;;;;;;;16.45;7.40;;;;;;;;;;5059594;28;20028;-66
2022/03/18 08:37:56;;;;;;;14.40;6.50;;;;;;;;;;5065424;28;20035;-67
2022/03/18 08:40:04;;;;;;;11.25;6.40;;;;;;;;;;5061302;28;20426;-67
2022/03/18 08:42:29;;;;;;;19.48;6.88;;;;;;;;;;5062965;28;20107;-66
2022/03/18 08:44:55;;;;;;;13.82;7.00;;;;;;;;;;5064318;28;20459;-66
2022/03/18 08:47:22;;;;;;;15.40;7.30;;;;;;;;;;5061620;28;20520;-66
2022/03/18 08:49:48;;;;;;;12.88;6.63;;;;;;;;;;5059541;28;20021;-66
2022/03/18 08:52:14;;;;;;;13.90;8.15;;;;;;;;;;5063325;28;20041;-66
2022/03/18 08:54:39;;;;;;;15.63;7.03;;;;;;;;;;5061768;28;20035;-66
2022/03/18 08:57:04;;;;;;;13.32;6.85;;;;;;;;;;5060316;28;20057;-66
2022/03/18 08:59:29;;;;;;;15.43;7.68;;;;;;;;;;5054301;28;20036;-66
2022/03/18 09:01:55;;;;;;;15.90;7.53;;;;;;;;;;5061104;28;20502;-66
2022/03/18 09:04:20;;;;;;;13.70;7.95;;;;;;;;;;5060071;28;20532;-66
2022/03/18 09:06:47;;;;;;;14.13;7.82;;;;;;;;;;5061828;28;20491;-66
2022/03/18 09:09:12;;;;;;;17.58;7.82;;;;;;;;;;5041302;28;20091;-72
2022/03/18 09:11:38;;;;;;;13.13;8.13;;;;;;;;;;5040632;28;20114;-71
2022/03/18 09:14:03;;;;;;;15.23;8.02;;;;;;;;;;5041795;28;20110;-67
2022/03/18 09:16:30;;;;;;;14.27;7.63;;;;;;;;;;5037975;28;20040;-65
2022/03/18 09:18:55;;;;;;;14.23;8.13;;;;;;;;;;5038080;28;20032;-66
2022/03/18 09:21:20;;;;;;;15.30;7.95;;;;;;;;;;5042814;28;20025;-65
2022/03/18 09:23:46;;;;;;;14.23;7.65;;;;;;;;;;5039119;28;20505;-68
2022/03/18 09:26:11;;;;;;;16.95;7.88;;;;;;;;;;5039321;28;20244;-66
2022/03/18 09:28:37;;;;;;;14.30;7.10;;;;;;;;;;5036058;28;20009;-66
2022/03/18 09:31:03;;;;;;;16.73;7.30;;;;;;;;;;5038654;28;20458;-66
2022/03/18 09:33:28;;;;;;;17.45;7.10;;;;;;;;;;5040793;28;20518;-67
2022/03/18 09:35:53;;;;;;;16.20;7.43;;;;;;;;;;5040315;28;20115;-66
2022/03/18 09:38:19;;;;;;;16.02;8.13;;;;;;;;;;5021632;28;20387;-67
2022/03/18 09:40:44;;;;;;;17.55;7.25;;;;;;;;;;5044093;28;20124;-67
2022/03/18 09:43:10;;;;;;;15.73;7.45;;;;;;;;;;5040376;28;20040;-67
2022/03/18 09:45:37;;;;;;;16.88;6.95;;;;;;;;;;5038958;28;20020;-67
2022/03/18 09:48:04;;;;;;;16.17;8.02;;;;;;;;;;5038052;28;20028;-66
2022/03/18 09:50:29;;;;;;;17.70;7.15;;;;;;;;;;5042036;28;20072;-67
2022/03/18 09:52:56;;;;;;;18.08;7.30;;;;;;;;;;5040520;28;20028;-67
2022/03/18 09:55:21;;;;;;;13.77;6.57;;;;;;;;;;5040804;28;20052;-68
2022/03/18 09:57:47;;;;;;;16.08;6.22;;;;;;;;;;5038900;28;20097;-69
2022/03/18 10:00:13;;;;;;;16.17;6.57;;;;;;;;;;5036243;28;20060;-68
2022/03/18 10:02:38;;;;;;;17.05;6.43;;;;;;;;;;5041722;28;20025;-68
2022/03/18 10:05:08;;;;;;;14.98;6.60;;;;;;;;;;5044298;28;20432;-68
2022/03/18 10:07:33;;;;;;;14.60;7.22;;;;;;;;;;5042179;28;20487;-68
2022/03/18 10:10:02;;;;;;;14.98;7.00;;;;;;;;;;5040429;28;20027;-67
2022/03/18 10:12:33;;;;;;;14.82;6.57;;;;;;;;;;5041529;28;20049;-68
2022/03/18 10:15:06;;;;;;;14.75;6.53;;;;;;;;;;5034520;28;20138;-68
2022/03/18 10:17:48;;;;;;;12.07;5.90;;;;;;;;;;5040893;28;20044;-68
2022/03/18 10:20:33;;;;;;;15.85;6.43;;;;;;;;;;5036391;28;20461;-67
2022/03/18 10:23:03;;;;;;;10.20;5.28;;;;;;;;;;5040786;28;20060;-67
2022/03/18 10:25:53;;;;;;;9.73;6.10;;;;;;;;;;5039099;28;20091;-67
2022/03/18 10:28:41;;;;;;;9.75;5.82;;;;;;;;;;5037091;28;20072;-68
2022/03/18 10:31:16;;;;;;;10.82;6.20;;;;;;;;;;5037838;28;20429;-67
2022/03/18 10:37:04;;;;;;;11.80;6.63;;;;;;;;;;5038030;28;20450;-67
2022/03/18 10:39:22;;;;;;;13.68;6.68;;;;;;;;;;5037715;28;20136;-66
2022/03/18 10:41:47;;;;;;;13.68;6.78;;;;;;;;;;5040231;28;20471;-67
2022/03/18 10:44:15;;;;;;;16.00;6.68;;;;;;;;;;5045539;28;20306;-67
2022/03/18 10:46:41;;;;;;;11.80;6.22;;;;;;;;;;5059149;28;20532;-67
2022/03/18 10:49:07;;;;;;;12.95;6.10;;;;;;;;;;5057591;28;20036;-67
2022/03/18 10:51:34;;;;;;;10.38;5.15;;;;;;;;;;5063699;28;20395;-67
2022/03/18 10:53:59;;;;;;;9.20;5.63;;;;;;;;;;5062772;28;20036;-67
2022/03/18 10:56:24;;;;;;;11.48;5.82;;;;;;;;;;5064188;28;20036;-67
2022/03/18 10:58:50;;;;;;;15.40;6.22;;;;;;;;;;5060165;28;20025;-68
2022/03/18 11:01:15;;;;;;;9.77;5.47;;;;;;;;;;5047066;28;20046;-67
2022/03/18 11:03:41;;;;;;;11.02;5.50;;;;;;;;;;5069942;28;20024;-67
2022/03/18 11:06:07;;;;;;;8.90;5.53;;;;;;;;;;5060288;28;20103;-67
2022/03/18 11:08:35;;;;;;;13.52;5.72;;;;;;;;;;5063947;28;20032;-67
2022/03/18 11:11:15;;;;;;;11.43;6.55;;;;;;;;;;5064080;28;20027;-68
2022/03/18 11:13:48;;;;;;;10.25;5.32;;;;;;;;;;5061189;28;20376;-68
2022/03/18 11:16:16;;;;;;;11.68;5.78;;;;;;;;;;5059853;28;20031;-65
2022/03/18 11:18:41;;;;;;;11.43;5.07;;;;;;;;;;5063513;28;20168;-67
2022/03/18 11:21:07;;;;;;;8.48;5.40;;;;;;;;;;5061199;28;20456;-66
2022/03/18 11:23:34;;;;;;;11.88;5.50;;;;;;;;;;5062380;28;20475;-68
2022/03/18 11:26:00;;;;;;;8.80;4.50;;;;;;;;;;5062182;28;20044;-67
2022/03/18 11:28:26;;;;;;;13.23;5.18;;;;;;;;;;5042925;28;20023;-68
2022/03/18 11:31:04;;;;;;;10.63;4.75;;;;;;;;;;5062075;28;20020;-68
2022/03/18 11:33:30;;;;;;;9.15;5.43;;;;;;;;;;5062186;28;20016;-67
2022/03/18 11:35:55;;;;;;;11.30;4.82;;;;;;;;;;5063823;28;20028;-68
2022/03/18 11:38:30;;;;;;;7.85;4.22;;;;;;;;;;5058644;28;20338;-66
2022/03/18 11:41:01;;;;;;;10.95;5.38;;;;;;;;;;5063833;28;20039;-67
2022/03/18 11:43:41;;;;;;;9.50;5.38;;;;;;;;;;5043086;28;20020;-68
2022/03/18 11:46:13;;;;;;;9.20;6.50;;;;;;;;;;5060268;28;20095;-67
2022/03/18 11:48:46;;;;;;;8.77;5.80;;;;;;;;;;5060841;28;20020;-69
2022/03/18 11:51:29;;;;;;;14.18;6.32;;;;;;;;;;5062140;28;20019;-67
2022/03/18 11:53:55;;;;;;;13.75;6.18;;;;;;;;;;5064123;28;20100;-68
2022/03/18 11:56:44;;;;;;;9.95;5.78;;;;;;;;;;5060897;28;20315;-67
2022/03/18 11:59:31;;;;;;;10.00;5.95;;;;;;;;;;5057402;28;20412;-67
2022/03/18 12:02:05;;;;;;;12.93;6.53;;;;;;;;;;5064663;28;20021;-66
2022/03/18 12:04:34;;;;;;;14.05;7.25;;;;;;;;;;5063163;28;20055;-67
2022/03/18 12:07:12;;;;;;;11.95;7.28;;;;;;;;;;5063183;28;20013;-66
2022/03/18 12:09:57;;;;;;;11.23;6.60;;;;;;;;;;5062395;28;20051;-67
2022/03/18 12:12:24;;;;;;;10.48;5.00;;;;;;;;;;5067744;28;20028;-67
2022/03/18 12:14:50;;;;;;;9.77;5.25;;;;;;;;;;5069482;28;20029;-68
2022/03/18 12:17:16;;;;;;;9.25;5.07;;;;;;;;;;5066849;28;20070;-67
2022/03/18 12:19:47;;;;;;;10.38;5.00;;;;;;;;;;5061506;28;20390;-67
2022/03/18 12:22:13;;;;;;;8.75;4.85;;;;;;;;;;5060684;28;20021;-67
2022/03/18 12:24:40;;;;;;;7.70;4.97;;;;;;;;;;5060793;28;20411;-67
2022/03/18 12:27:06;;;;;;;9.98;5.07;;;;;;;;;;5059413;28;20072;-66
2022/03/18 12:29:31;;;;;;;8.50;4.22;;;;;;;;;;5056635;28;20242;-67
2022/03/18 12:32:18;;;;;;;8.10;4.15;;;;;;;;;;5063239;28;20062;-68
2022/03/18 12:34:50;;;;;;;11.20;4.35;;;;;;;;;;5059289;28;20027;-65
2022/03/18 12:37:22;;;;;;;9.25;4.97;;;;;;;;;;5059640;28;20017;-67
2022/03/18 12:40:06;;;;;;;10.50;4.72;;;;;;;;;;5061625;28;20107;-68
2022/03/18 12:42:32;;;;;;;7.55;3.85;;;;;;;;;;5057001;28;20120;-67
2022/03/18 12:45:02;;;;;;;10.48;4.30;;;;;;;;;;5057241;28;20017;-67
2022/03/18 12:47:30;;;;;;;10.45;4.55;;;;;;;;;;5056534;28;20353;-66
2022/03/18 12:49:55;;;;;;;9.88;4.30;;;;;;;;;;5059776;28;20027;-66
2022/03/18 12:52:21;;;;;;;9.05;4.20;;;;;;;;;;5056237;28;20323;-68
2022/03/18 12:55:06;;;;;;;8.98;3.75;;;;;;;;;;5058161;28;20104;-66
2022/03/18 12:57:33;;;;;;;7.72;4.05;;;;;;;;;;5057698;28;20055;-67
2022/03/18 12:59:59;;;;;;;8.68;3.97;;;;;;;;;;5056339;28;20111;-67
2022/03/18 13:02:25;;;;;;;7.78;3.63;;;;;;;;;;5058864;28;20419;-68
2022/03/18 13:04:57;;;;;;;9.23;3.80;;;;;;;;;;5059726;28;20028;-67
2022/03/18 13:07:27;;;;;;;7.85;3.45;;;;;;;;;;5059637;28;20566;-68
2022/03/18 13:09:52;;;;;;;6.97;3.53;;;;;;;;;;5058629;28;20031;-68
2022/03/18 13:12:34;;;;;;;9.10;3.65;;;;;;;;;;5059757;28;20024;-68
2022/03/18 13:15:11;;;;;;;7.43;3.30;;;;;;;;;;5049829;28;20183;-66
2022/03/18 13:17:36;;;;;;;8.23;3.50;;;;;;;;;;5041556;28;20040;-67
2022/03/18 13:20:02;;;;;;;8.57;3.25;;;;;;;;;;5042137;28;20028;-67
2022/03/18 13:22:30;;;;;;;7.68;2.95;;;;;;;;;;5038692;28;20073;-67
2022/03/18 13:24:58;;;;;;;9.18;2.70;;;;;;;;;;5042837;28;20025;-67
2022/03/18 13:27:24;;;;;;;6.22;2.33;;;;;;;;;;5040539;28;20013;-67
2022/03/18 13:32:50;;;;;;;9.90;2.55;;;;;;;;;;5041475;28;20502;-68
2022/03/18 13:35:17;;;;;;;5.43;3.05;;;;;;;;;;5041747;28;20065;-66
2022/03/18 13:37:42;;;;;;;8.68;3.42;;;;;;;;;;5049011;28;20048;-66
2022/03/18 13:40:12;;;;;;;5.03;2.45;;;;;;;;;;5042655;28;20052;-66
2022/03/18 13:42:37;;;;;;;4.72;2.40;;;;;;;;;;5041033;28;20032;-68
2022/03/18 13:45:03;;;;;;;7.43;2.03;;;;;;;;;;5038744;28;20028;-67
2022/03/18 13:47:28;;;;;;;6.85;2.20;;;;;;;;;;5036992;28;20024;-69
2022/03/18 13:49:54;;;;;;;7.60;2.58;;;;;;;;;;5042338;28;20087;-67
2022/03/18 13:52:29;;;;;;;7.00;2.65;;;;;;;;;;5046927;28;20009;-68
2022/03/18 13:54:55;;;;;;;9.93;2.53;;;;;;;;;;5041408;28;20053;-67
2022/03/18 13:57:21;;;;;;;5.20;2.47;;;;;;;;;;5040391;28;20139;-67
2022/03/18 13:59:50;;;;;;;7.38;2.30;;;;;;;;;;5036176;28;20475;-68
2022/03/18 14:02:23;;;;;;;11.48;2.83;;;;;;;;;;5039470;28;20498;-66
2022/03/18 14:04:54;;;;;;;6.57;2.30;;;;;;;;;;5042461;28;20476;-68
2022/03/18 14:07:19;;;;;;;4.15;2.13;;;;;;;;;;5037361;28;20036;-68
2022/03/18 14:09:58;;;;;;;6.65;2.58;;;;;;;;;;5039848;28;20025;-67
2022/03/18 14:12:23;;;;;;;6.80;2.63;;;;;;;;;;5038729;28;20095;-67
2022/03/18 14:14:51;;;;;;;4.60;2.15;;;;;;;;;;5035975;28;20344;-68
2022/03/18 14:17:17;;;;;;;6.47;2.20;;;;;;;;;;5041969;28;20025;-67
2022/03/18 14:19:44;;;;;;;8.30;2.60;;;;;;;;;;5040236;28;20021;-68
2022/03/18 14:22:10;;;;;;;8.60;2.30;;;;;;;;;;5040728;28;20032;-69
2022/03/18 14:24:35;;;;;;;6.93;2.22;;;;;;;;;;5023184;28;20055;-66
2022/03/18 14:27:00;;;;;;;6.55;2.65;;;;;;;;;;5045006;28;20471;-69
2022/03/18 14:29:31;;;;;;;6.40;2.47;;;;;;;;;;5037410;28;20502;-69
2022/03/18 14:31:57;;;;;;;6.70;2.40;;;;;;;;;;5043530;28;20020;-68
2022/03/18 14:34:22;;;;;;;6.38;2.50;;;;;;;;;;5040399;28;20056;-68
2022/03/18 14:36:47;;;;;;;5.88;2.63;;;;;;;;;;5044844;28;20445;-67
2022/03/18 14:39:14;;;;;;;8.15;2.72;;;;;;;;;;5041482;28;20032;-69
2022/03/18 14:41:39;;;;;;;6.90;2.80;;;;;;;;;;5026398;28;20033;-68
2022/03/18 14:44:04;;;;;;;9.73;2.80;;;;;;;;;;5038336;28;20029;-68
2022/03/18 14:46:30;;;;;;;6.68;2.22;;;;;;;;;;5041865;28;20309;-69
2022/03/18 14:48:55;;;;;;;8.13;2.75;;;;;;;;;;5042807;28;20025;-67
2022/03/18 14:51:22;;;;;;;9.38;2.58;;;;;;;;;;5024856;28;20036;-67
2022/03/18 14:53:48;;;;;;;10.43;2.42;;;;;;;;;;5042605;28;20539;-68
2022/03/18 14:56:19;;;;;;;6.78;1.88;;;;;;;;;;5043310;28;20173;-68
2022/03/18 14:58:44;;;;;;;5.35;2.17;;;;;;;;;;5036896;28;20436;-68
2022/03/18 15:01:10;;;;;;;8.90;2.30;;;;;;;;;;5043184;28;20052;-68